createdAt,value
2022-09-17T00:03:09.979Z,99532.19
2022-09-17T00:08:16.553Z,99535.25
2022-09-17T00:13:22.265Z,99536.05
2022-09-17T00:18:27.733Z,99533.00
2022-09-17T00:23:33.304Z,99542.30
2022-09-17T00:28:39.144Z,99540.12
2022-09-17T00:33:44.605Z,99544.06
2022-09-17T00:38:55.891Z,99537.25
2022-09-17T00:44:03.853Z,99544.80
2022-09-17T00:49:18.305Z,99550.41
2022-09-17T00:54:24.674Z,99557.61
2022-09-17T00:59:30.391Z,99556.39
2022-09-17T01:04:35.868Z,99561.92
2022-09-17T01:10:07.450Z,99554.69
2022-09-17T01:15:35.453Z,99554.09
2022-09-17T01:21:02.102Z,99555.23
2022-09-17T01:26:16.648Z,99568.63
2022-09-17T01:31:37.391Z,99571.92
2022-09-17T01:36:57.619Z,99574.59
2022-09-17T01:42:18.830Z,99567.53
2022-09-17T01:47:26.787Z,99567.42
2022-09-17T01:52:35.515Z,99569.61
2022-09-17T01:57:56.104Z,99578.53
2022-09-17T02:03:13.446Z,99579.48
2022-09-17T02:08:26.229Z,99589.70
2022-09-17T02:13:34.724Z,99588.24
2022-09-17T02:18:45.942Z,99588.97
2022-09-17T02:24:04.172Z,99591.53
2022-09-17T02:29:12.743Z,99589.09
2022-09-17T02:34:18.431Z,99588.97
2022-09-17T02:39:24.191Z,99590.92
2022-09-17T02:44:55.392Z,99588.84
2022-09-17T02:50:20.160Z,99589.05
2022-09-17T02:55:46.551Z,99590.87
2022-09-17T03:00:53.343Z,99578.45
2022-09-17T03:05:59.089Z,99576.12
2022-09-17T03:11:05.992Z,99575.13
2022-09-17T03:16:11.829Z,99571.54
2022-09-17T03:21:17.353Z,99580.67
2022-09-17T03:26:22.820Z,99584.03
2022-09-17T03:31:29.473Z,99588.76
2022-09-17T03:36:35.068Z,99582.52
2022-09-17T03:41:40.614Z,99591.86
2022-09-17T03:46:46.463Z,99605.25
2022-09-17T03:51:51.967Z,99599.86
2022-09-17T03:56:57.349Z,99597.41
2022-09-17T04:02:03.118Z,99595.07
2022-09-17T04:07:08.841Z,99591.77
2022-09-17T04:12:14.591Z,99591.52
2022-09-17T04:17:20.141Z,99585.89
2022-09-17T04:22:26.069Z,99601.80
2022-09-17T04:27:31.449Z,99603.73
2022-09-17T04:32:36.956Z,99611.63
2022-09-17T04:37:42.370Z,99610.65
2022-09-17T04:42:47.754Z,99611.86
2022-09-17T04:47:53.505Z,99610.95
2022-09-17T04:52:58.893Z,99613.99
2022-09-17T04:58:04.643Z,99618.12
2022-09-17T05:03:10.588Z,99619.07
2022-09-17T05:08:15.970Z,99614.88
2022-09-17T05:13:21.622Z,99620.12
2022-09-17T05:18:27.014Z,99620.61
2022-09-17T05:23:32.385Z,99624.20
2022-09-17T05:28:37.761Z,99629.68
2022-09-17T05:33:43.162Z,99642.45
2022-09-17T05:38:48.740Z,99635.97
2022-09-17T05:43:54.204Z,99647.22
2022-09-17T05:48:59.877Z,99647.95
2022-09-17T05:54:05.411Z,99659.50
2022-09-17T05:59:11.000Z,99657.73
2022-09-17T06:04:18.038Z,99658.55
2022-09-17T06:09:23.406Z,99655.33
2022-09-17T06:14:29.128Z,99662.41
2022-09-17T06:19:34.545Z,99670.34
2022-09-17T06:24:39.957Z,99669.67
2022-09-17T06:29:45.410Z,99682.71
2022-09-17T06:34:50.869Z,99684.19
2022-09-17T06:39:56.452Z,99683.73
2022-09-17T06:45:07.128Z,99686.78
2022-09-17T06:50:09.516Z,99683.23
2022-09-17T06:55:16.011Z,99687.70
2022-09-17T07:00:21.757Z,99688.78
2022-09-17T07:05:28.169Z,99698.33
2022-09-17T07:10:33.726Z,99700.61
2022-09-17T07:15:39.412Z,99698.98
2022-09-17T07:20:44.899Z,99698.19
2022-09-17T07:25:58.857Z,99699.20
2022-09-17T07:31:05.816Z,99702.78
2022-09-17T07:36:13.722Z,99704.13
2022-09-17T07:41:19.630Z,99702.15
2022-09-17T07:46:25.322Z,99702.76
2022-09-17T07:51:30.784Z,99706.34
2022-09-17T07:56:36.435Z,99710.73
2022-09-17T08:01:42.554Z,99713.56
2022-09-17T08:06:51.177Z,99717.39
2022-09-17T08:11:57.120Z,99707.98
2022-09-17T08:17:02.591Z,99708.47
2022-09-17T08:22:07.972Z,99705.36
2022-09-17T08:27:14.011Z,99700.25
2022-09-17T08:32:19.662Z,99704.77
2022-09-17T08:37:25.196Z,99707.32
2022-09-17T08:42:42.832Z,99706.13
2022-09-17T08:47:48.898Z,99714.77
2022-09-17T08:53:30.989Z,99711.09
2022-09-17T08:58:59.229Z,99715.59
2022-09-17T09:04:19.771Z,99712.58
2022-09-17T09:09:28.428Z,99717.23
2022-09-17T09:14:39.701Z,99718.33
2022-09-17T09:19:47.739Z,99710.10
2022-09-17T09:24:58.949Z,99709.14
2022-09-17T09:30:13.588Z,99713.80
2022-09-17T09:35:22.070Z,99714.02
2022-09-17T09:40:44.864Z,99709.10
2022-09-17T09:46:26.128Z,99705.41
2022-09-17T09:51:54.435Z,99704.04
2022-09-17T09:57:07.590Z,99705.47
2022-09-17T10:02:13.877Z,99705.57
2022-09-17T10:07:19.597Z,99709.92
2022-09-17T10:12:25.058Z,99711.87
2022-09-17T10:17:30.732Z,99724.77
2022-09-17T10:22:38.932Z,99731.48
2022-09-17T10:27:46.476Z,99725.59
2022-09-17T10:33:14.615Z,99723.83
2022-09-17T10:38:32.030Z,99730.08
2022-09-17T10:43:37.680Z,99736.48
2022-09-17T10:48:46.020Z,99737.94
2022-09-17T10:54:03.162Z,99745.16
2022-09-17T10:59:26.654Z,99748.91
2022-09-17T11:04:50.031Z,99737.48
2022-09-17T11:10:04.497Z,99738.20
2022-09-17T11:15:31.180Z,99737.80
2022-09-17T11:20:48.750Z,99742.89
2022-09-17T11:26:01.098Z,99745.22
2022-09-17T11:31:23.883Z,99749.45
2022-09-17T11:36:41.182Z,99755.71
2022-09-17T11:41:49.967Z,99763.59
2022-09-17T11:46:58.489Z,99763.17
2022-09-17T11:52:27.961Z,99749.95
2022-09-17T11:57:36.650Z,99752.66
2022-09-17T12:02:59.785Z,99759.97
2022-09-17T12:08:29.003Z,99758.41
2022-09-17T12:13:55.638Z,99743.47
2022-09-17T12:19:36.214Z,99747.53
2022-09-17T12:24:42.569Z,99742.25
2022-09-17T12:30:09.118Z,99742.97
2022-09-17T12:35:20.493Z,99742.97
2022-09-17T12:40:57.726Z,99742.33
2022-09-17T12:46:30.454Z,99718.50
2022-09-17T12:51:41.899Z,99727.13
2022-09-17T12:56:58.901Z,99728.30
2022-09-17T13:02:07.421Z,99734.82
2022-09-17T13:07:39.859Z,99736.02
2022-09-17T13:13:00.325Z,99750.62
2022-09-17T13:18:27.261Z,99747.09
2022-09-17T13:23:43.652Z,99749.11
2022-09-17T13:28:53.418Z,99739.80
2022-09-17T13:34:03.264Z,99739.86
2022-09-17T13:39:11.906Z,99739.68
2022-09-17T13:44:20.460Z,99738.30
2022-09-17T13:49:26.356Z,99749.20
2022-09-17T13:54:39.592Z,99749.80
2022-09-17T13:59:49.337Z,99752.63
2022-09-17T14:04:57.531Z,99754.44
2022-09-17T14:10:15.048Z,99751.30
2022-09-17T14:15:39.532Z,99746.24
2022-09-17T14:20:45.881Z,99757.19
2022-09-17T14:25:56.913Z,99765.52
2022-09-17T14:31:05.701Z,99764.87
2022-09-17T14:36:14.185Z,99757.81
2022-09-17T14:41:28.468Z,99759.78
2022-09-17T14:46:46.304Z,99756.44
2022-09-17T14:51:51.085Z,99752.73
2022-09-17T14:57:02.267Z,99752.18
2022-09-17T15:02:16.541Z,99754.39
2022-09-17T15:07:23.358Z,99736.49
2022-09-17T15:12:30.860Z,99751.19
2022-09-17T15:17:36.822Z,99748.42
2022-09-17T15:22:43.940Z,99757.70
2022-09-17T15:27:49.464Z,99759.22
2022-09-17T15:32:57.267Z,99764.67
2022-09-17T15:38:24.330Z,99760.84
2022-09-17T15:43:32.734Z,99759.30
2022-09-17T15:48:39.807Z,99757.28
2022-09-17T15:53:53.618Z,99758.62
2022-09-17T15:59:02.862Z,99767.03
2022-09-17T16:04:19.994Z,99758.28
2022-09-17T16:09:43.718Z,99756.83
2022-09-17T16:14:51.704Z,99771.16
2022-09-17T16:20:01.414Z,99764.35
2022-09-17T16:25:06.869Z,99769.11
2022-09-17T16:30:15.372Z,99772.72
2022-09-17T16:35:22.997Z,99776.98
2022-09-17T16:40:28.843Z,99778.26
2022-09-17T16:45:34.261Z,99779.78
2022-09-17T16:50:41.951Z,99790.34
2022-09-17T16:55:47.519Z,99787.42
2022-09-17T17:00:53.373Z,99785.17
2022-09-17T17:05:58.756Z,99788.10
2022-09-17T17:11:04.233Z,99786.75
2022-09-17T17:16:14.871Z,99790.11
2022-09-17T17:21:21.553Z,99791.45
2022-09-17T17:26:26.951Z,99789.04
2022-09-17T17:31:32.494Z,99795.14
2022-09-17T17:36:37.897Z,99793.44
2022-09-17T17:41:43.466Z,99789.95
2022-09-17T17:46:49.014Z,99786.85
2022-09-17T17:51:54.775Z,99798.75
2022-09-17T17:57:00.167Z,99789.10
2022-09-17T18:02:05.814Z,99791.93
2022-09-17T18:07:11.370Z,99799.21
2022-09-17T18:12:17.557Z,99803.33
2022-09-17T18:17:24.561Z,99801.77
2022-09-17T18:22:29.994Z,99801.05
2022-09-17T18:27:35.411Z,99805.63
2022-09-17T18:32:40.811Z,99809.17
2022-09-17T18:37:46.280Z,99816.70
2022-09-17T18:42:51.682Z,99815.67
2022-09-17T18:47:57.194Z,99811.64
2022-09-17T18:53:03.076Z,99819.80
2022-09-17T18:58:08.703Z,99826.89
2022-09-17T19:03:14.306Z,99829.94
2022-09-17T19:08:23.917Z,99833.17
2022-09-17T19:13:34.946Z,99836.34
2022-09-17T19:18:41.475Z,99836.72
2022-09-17T19:23:49.165Z,99830.99
2022-09-17T19:28:58.019Z,99838.30
2022-09-17T19:34:05.145Z,99833.02
2022-09-17T19:39:11.579Z,99832.13
2022-09-17T19:44:18.308Z,99823.59
2022-09-17T19:49:24.609Z,99815.72
2022-09-17T19:54:30.085Z,99818.89
2022-09-17T19:59:35.518Z,99813.82
2022-09-17T20:04:41.286Z,99814.14
2022-09-17T20:09:48.736Z,99815.55
2022-09-17T20:14:55.145Z,99813.88
2022-09-17T20:20:00.927Z,99816.38
2022-09-17T20:25:07.295Z,99809.06
2022-09-17T20:30:14.086Z,99821.91
2022-09-17T20:35:19.543Z,99822.53
2022-09-17T20:40:25.453Z,99820.09
2022-09-17T20:45:31.229Z,99816.31
2022-09-17T20:50:36.825Z,99824.36
2022-09-17T20:55:42.259Z,99828.17
2022-09-17T21:00:47.740Z,99825.00
2022-09-17T21:05:53.141Z,99819.02
2022-09-17T21:10:58.761Z,99826.13
2022-09-17T21:16:04.584Z,99820.52
2022-09-17T21:21:13.553Z,99831.23
2022-09-17T21:26:21.495Z,99829.27
2022-09-17T21:31:32.306Z,99822.81
2022-09-17T21:36:38.785Z,99822.33
2022-09-17T21:41:46.000Z,99822.72
2022-09-17T21:46:53.115Z,99825.27
2022-09-17T21:51:58.543Z,99817.71
2022-09-17T21:57:04.011Z,99814.91
2022-09-17T22:02:09.606Z,99815.52
2022-09-17T22:07:15.053Z,99813.20
2022-09-17T22:12:20.434Z,99816.86
2022-09-17T22:17:26.298Z,99821.13
2022-09-17T22:22:31.757Z,99818.81
2022-09-17T22:27:37.139Z,99815.64
2022-09-17T22:32:42.527Z,99818.42
2022-09-17T22:37:47.944Z,99822.81
2022-09-17T22:42:53.361Z,99823.91
2022-09-17T22:47:58.766Z,99821.11
2022-09-17T22:53:04.198Z,99822.45
2022-09-17T22:58:09.853Z,99824.15
2022-09-17T23:03:15.287Z,99827.94
2022-09-17T23:08:20.670Z,99819.41
2022-09-17T23:13:26.124Z,99807.70
2022-09-17T23:18:32.524Z,99806.49
2022-09-17T23:23:38.450Z,99804.16
2022-09-17T23:28:44.408Z,99789.31
2022-09-17T23:33:50.606Z,99787.60
2022-09-17T23:38:57.585Z,99780.17
2022-09-17T23:44:09.415Z,99786.03
2022-09-17T23:49:15.284Z,99778.95
2022-09-17T23:54:20.681Z,99768.48
2022-09-17T23:59:27.615Z,99768.23
